sensor_id;sensor_type;location;lat;lon;timestamp;P1;durP1;ratioP1;P2;durP2;ratioP2
47225;SDS011;32965;64.142;-21.912;2024-02-26T00:02:24;7.00;;;0.87;;
47225;SDS011;32965;64.142;-21.912;2024-02-26T00:04:50;4.30;;;1.00;;
47225;SDS011;32965;64.142;-21.912;2024-02-26T00:07:16;5.60;;;0.77;;
47225;SDS011;32965;64.142;-21.912;2024-02-26T00:09:42;5.63;;;1.17;;
47225;SDS011;32965;64.142;-21.912;2024-02-26T00:12:09;6.03;;;1.10;;
47225;SDS011;32965;64.142;-21.912;2024-02-26T00:14:35;4.80;;;1.20;;
47225;SDS011;32965;64.142;-21.912;2024-02-26T00:17:04;2.80;;;0.83;;
47225;SDS011;32965;64.142;-21.912;2024-02-26T00:19:30;6.80;;;1.37;;
47225;SDS011;32965;64.142;-21.912;2024-02-26T00:21:56;6.00;;;1.10;;
47225;SDS011;32965;64.142;-21.912;2024-02-26T00:24:22;7.50;;;2.00;;
47225;SDS011;32965;64.142;-21.912;2024-02-26T00:26:48;2.60;;;1.17;;
47225;SDS011;32965;64.142;-21.912;2024-02-26T00:29:18;5.23;;;1.20;;
47225;SDS011;32965;64.142;-21.912;2024-02-26T00:31:45;8.87;;;1.23;;
47225;SDS011;32965;64.142;-21.912;2024-02-26T00:34:11;6.63;;;1.53;;
47225;SDS011;32965;64.142;-21.912;2024-02-26T00:36:37;5.57;;;1.50;;
47225;SDS011;32965;64.142;-21.912;2024-02-26T00:39:03;8.17;;;0.90;;
47225;SDS011;32965;64.142;-21.912;2024-02-26T00:41:29;6.03;;;1.40;;
47225;SDS011;32965;64.142;-21.912;2024-02-26T00:43:55;6.40;;;1.33;;
47225;SDS011;32965;64.142;-21.912;2024-02-26T00:46:22;6.97;;;1.00;;
47225;SDS011;32965;64.142;-21.912;2024-02-26T00:48:48;5.17;;;1.13;;
47225;SDS011;32965;64.142;-21.912;2024-02-26T00:51:14;6.93;;;1.40;;
47225;SDS011;32965;64.142;-21.912;2024-02-26T00:53:40;6.47;;;1.03;;
47225;SDS011;32965;64.142;-21.912;2024-02-26T00:56:06;6.20;;;1.10;;
47225;SDS011;32965;64.142;-21.912;2024-02-26T00:58:33;6.80;;;1.07;;
47225;SDS011;32965;64.142;-21.912;2024-02-26T01:06:10;5.77;;;1.70;;
47225;SDS011;32965;64.142;-21.912;2024-02-26T01:08:36;4.63;;;0.90;;
47225;SDS011;32965;64.142;-21.912;2024-02-26T01:11:10;7.43;;;1.23;;
47225;SDS011;32965;64.142;-21.912;2024-02-26T01:13:36;6.13;;;1.70;;
47225;SDS011;32965;64.142;-21.912;2024-02-26T01:16:02;7.80;;;1.87;;
47225;SDS011;32965;64.142;-21.912;2024-02-26T03:21:55;8.73;;;1.60;;
47225;SDS011;32965;64.142;-21.912;2024-02-26T04:11:06;6.23;;;1.83;;
47225;SDS011;32965;64.142;-21.912;2024-02-26T04:13:34;15.13;;;3.00;;
47225;SDS011;32965;64.142;-21.912;2024-02-26T04:18:39;12.07;;;2.57;;
47225;SDS011;32965;64.142;-21.912;2024-02-26T04:47:04;15.77;;;2.87;;
47225;SDS011;32965;64.142;-21.912;2024-02-26T04:49:32;9.63;;;2.20;;
47225;SDS011;32965;64.142;-21.912;2024-02-26T04:51:59;12.53;;;3.20;;
47225;SDS011;32965;64.142;-21.912;2024-02-26T05:15:09;20.97;;;5.10;;
47225;SDS011;32965;64.142;-21.912;2024-02-26T06:17:19;26.70;;;6.03;;
47225;SDS011;32965;64.142;-21.912;2024-02-26T07:08:41;26.50;;;4.07;;
47225;SDS011;32965;64.142;-21.912;2024-02-26T07:11:08;25.97;;;5.10;;
47225;SDS011;32965;64.142;-21.912;2024-02-26T07:13:35;30.50;;;5.55;;
47225;SDS011;32965;64.142;-21.912;2024-02-26T07:16:02;21.67;;;4.30;;
47225;SDS011;32965;64.142;-21.912;2024-02-26T07:18:29;30.80;;;5.07;;
47225;SDS011;32965;64.142;-21.912;2024-02-26T07:28:42;20.83;;;4.77;;
47225;SDS011;32965;64.142;-21.912;2024-02-26T07:34:07;26.02;;;4.93;;
47225;SDS011;32965;64.142;-21.912;2024-02-26T07:41:46;27.90;;;4.73;;
47225;SDS011;32965;64.142;-21.912;2024-02-26T07:46:46;38.90;;;5.13;;
47225;SDS011;32965;64.142;-21.912;2024-02-26T07:51:48;26.20;;;4.67;;
47225;SDS011;32965;64.142;-21.912;2024-02-26T08:07:40;22.70;;;4.33;;
47225;SDS011;32965;64.142;-21.912;2024-02-26T08:39:45;32.07;;;4.67;;
47225;SDS011;32965;64.142;-21.912;2024-02-26T08:42:12;24.70;;;4.27;;
47225;SDS011;32965;64.142;-21.912;2024-02-26T08:44:38;31.33;;;5.40;;
47225;SDS011;32965;64.142;-21.912;2024-02-26T08:47:04;28.73;;;5.23;;
47225;SDS011;32965;64.142;-21.912;2024-02-26T08:49:30;17.67;;;4.50;;
47225;SDS011;32965;64.142;-21.912;2024-02-26T08:51:56;35.77;;;6.67;;
47225;SDS011;32965;64.142;-21.912;2024-02-26T08:57:15;28.00;;;4.00;;
47225;SDS011;32965;64.142;-21.912;2024-02-26T09:02:17;21.03;;;3.60;;
47225;SDS011;32965;64.142;-21.912;2024-02-26T09:04:44;21.25;;;4.13;;
47225;SDS011;32965;64.142;-21.912;2024-02-26T09:07:11;24.10;;;4.07;;
47225;SDS011;32965;64.142;-21.912;2024-02-26T09:09:37;19.07;;;3.50;;
47225;SDS011;32965;64.142;-21.912;2024-02-26T09:12:03;24.10;;;3.73;;
47225;SDS011;32965;64.142;-21.912;2024-02-26T09:14:29;15.33;;;2.50;;
47225;SDS011;32965;64.142;-21.912;2024-02-26T09:19:59;16.63;;;2.73;;
47225;SDS011;32965;64.142;-21.912;2024-02-26T09:22:25;22.20;;;3.40;;
47225;SDS011;32965;64.142;-21.912;2024-02-26T09:24:51;26.30;;;5.47;;
47225;SDS011;32965;64.142;-21.912;2024-02-26T09:27:18;24.10;;;4.03;;
47225;SDS011;32965;64.142;-21.912;2024-02-26T09:29:44;18.73;;;3.83;;
47225;SDS011;32965;64.142;-21.912;2024-02-26T09:32:11;22.47;;;4.17;;
47225;SDS011;32965;64.142;-21.912;2024-02-26T09:34:39;17.27;;;2.67;;
47225;SDS011;32965;64.142;-21.912;2024-02-26T09:37:05;21.00;;;4.07;;
47225;SDS011;32965;64.142;-21.912;2024-02-26T09:42:28;19.17;;;4.40;;
47225;SDS011;32965;64.142;-21.912;2024-02-26T09:44:57;19.87;;;3.07;;
47225;SDS011;32965;64.142;-21.912;2024-02-26T09:47:31;30.20;;;2.70;;
47225;SDS011;32965;64.142;-21.912;2024-02-26T09:49:57;10.87;;;1.80;;
47225;SDS011;32965;64.142;-21.912;2024-02-26T09:52:24;9.17;;;2.50;;
47225;SDS011;32965;64.142;-21.912;2024-02-26T09:54:51;14.43;;;3.23;;
47225;SDS011;32965;64.142;-21.912;2024-02-26T09:57:17;19.90;;;3.77;;
47225;SDS011;32965;64.142;-21.912;2024-02-26T09:59:44;15.43;;;2.70;;
47225;SDS011;32965;64.142;-21.912;2024-02-26T10:02:13;16.38;;;2.72;;
47225;SDS011;32965;64.142;-21.912;2024-02-26T10:04:39;20.03;;;2.67;;
47225;SDS011;32965;64.142;-21.912;2024-02-26T10:07:12;24.77;;;3.50;;
47225;SDS011;32965;64.142;-21.912;2024-02-26T10:09:38;18.47;;;2.47;;
47225;SDS011;32965;64.142;-21.912;2024-02-26T10:12:05;12.30;;;2.35;;
47225;SDS011;32965;64.142;-21.912;2024-02-26T10:14:32;10.83;;;2.17;;
47225;SDS011;32965;64.142;-21.912;2024-02-26T10:16:58;21.80;;;4.27;;
47225;SDS011;32965;64.142;-21.912;2024-02-26T10:19:30;13.55;;;3.08;;
47225;SDS011;32965;64.142;-21.912;2024-02-26T10:21:57;16.77;;;3.00;;
47225;SDS011;32965;64.142;-21.912;2024-02-26T10:24:24;21.63;;;4.15;;
47225;SDS011;32965;64.142;-21.912;2024-02-26T10:26:50;24.10;;;4.22;;
47225;SDS011;32965;64.142;-21.912;2024-02-26T10:29:18;28.45;;;4.15;;
47225;SDS011;32965;64.142;-21.912;2024-02-26T10:31:44;17.23;;;3.75;;
47225;SDS011;32965;64.142;-21.912;2024-02-26T10:34:12;24.77;;;4.93;;
47225;SDS011;32965;64.142;-21.912;2024-02-26T10:36:38;29.10;;;5.27;;
47225;SDS011;32965;64.142;-21.912;2024-02-26T10:39:09;30.98;;;4.78;;
47225;SDS011;32965;64.142;-21.912;2024-02-26T10:41:35;33.58;;;5.28;;
47225;SDS011;32965;64.142;-21.912;2024-02-26T10:44:01;30.63;;;5.22;;
47225;SDS011;32965;64.142;-21.912;2024-02-26T10:46:28;29.13;;;4.20;;
47225;SDS011;32965;64.142;-21.912;2024-02-26T10:48:54;30.23;;;5.03;;
47225;SDS011;32965;64.142;-21.912;2024-02-26T10:51:30;28.00;;;5.57;;
47225;SDS011;32965;64.142;-21.912;2024-02-26T10:53:57;37.03;;;6.35;;
47225;SDS011;32965;64.142;-21.912;2024-02-26T10:56:27;30.50;;;4.78;;
47225;SDS011;32965;64.142;-21.912;2024-02-26T10:58:57;38.50;;;7.95;;
47225;SDS011;32965;64.142;-21.912;2024-02-26T11:03:50;26.73;;;4.95;;
47225;SDS011;32965;64.142;-21.912;2024-02-26T11:06:17;25.52;;;4.60;;
47225;SDS011;32965;64.142;-21.912;2024-02-26T11:08:44;29.75;;;5.15;;
47225;SDS011;32965;64.142;-21.912;2024-02-26T11:11:11;23.52;;;3.75;;
47225;SDS011;32965;64.142;-21.912;2024-02-26T11:13:40;24.65;;;3.55;;
47225;SDS011;32965;64.142;-21.912;2024-02-26T11:16:09;29.63;;;3.88;;
47225;SDS011;32965;64.142;-21.912;2024-02-26T11:18:35;21.38;;;4.38;;
47225;SDS011;32965;64.142;-21.912;2024-02-26T11:21:04;23.33;;;3.90;;
47225;SDS011;32965;64.142;-21.912;2024-02-26T11:26:05;34.30;;;4.72;;
47225;SDS011;32965;64.142;-21.912;2024-02-26T11:28:33;21.30;;;3.80;;
47225;SDS011;32965;64.142;-21.912;2024-02-26T11:30:59;22.75;;;5.05;;
47225;SDS011;32965;64.142;-21.912;2024-02-26T11:33:27;28.15;;;6.63;;
47225;SDS011;32965;64.142;-21.912;2024-02-26T11:35:54;29.05;;;6.40;;
47225;SDS011;32965;64.142;-21.912;2024-02-26T11:38:26;28.05;;;3.78;;
47225;SDS011;32965;64.142;-21.912;2024-02-26T11:40:53;22.95;;;4.88;;
47225;SDS011;32965;64.142;-21.912;2024-02-26T11:48:36;27.95;;;5.75;;
47225;SDS011;32965;64.142;-21.912;2024-02-26T11:51:02;21.20;;;4.30;;
47225;SDS011;32965;64.142;-21.912;2024-02-26T11:53:31;24.58;;;4.90;;
47225;SDS011;32965;64.142;-21.912;2024-02-26T11:58:43;32.42;;;5.47;;
47225;SDS011;32965;64.142;-21.912;2024-02-26T12:03:54;26.98;;;4.97;;
47225;SDS011;32965;64.142;-21.912;2024-02-26T12:06:21;25.98;;;5.43;;
47225;SDS011;32965;64.142;-21.912;2024-02-26T12:08:47;32.47;;;6.78;;
47225;SDS011;32965;64.142;-21.912;2024-02-26T12:11:16;31.97;;;5.73;;
47225;SDS011;32965;64.142;-21.912;2024-02-26T12:13:45;32.28;;;6.05;;
47225;SDS011;32965;64.142;-21.912;2024-02-26T12:19:00;32.85;;;5.05;;
47225;SDS011;32965;64.142;-21.912;2024-02-26T12:21:26;32.28;;;5.32;;
47225;SDS011;32965;64.142;-21.912;2024-02-26T12:23:52;38.33;;;5.93;;
47225;SDS011;32965;64.142;-21.912;2024-02-26T12:26:18;29.17;;;5.25;;
47225;SDS011;32965;64.142;-21.912;2024-02-26T12:28:46;35.60;;;4.32;;
47225;SDS011;32965;64.142;-21.912;2024-02-26T12:31:12;26.52;;;5.25;;
47225;SDS011;32965;64.142;-21.912;2024-02-26T12:33:40;28.88;;;5.25;;
47225;SDS011;32965;64.142;-21.912;2024-02-26T12:36:06;29.73;;;6.18;;
47225;SDS011;32965;64.142;-21.912;2024-02-26T12:38:32;30.20;;;5.32;;
47225;SDS011;32965;64.142;-21.912;2024-02-26T12:41:02;41.10;;;6.13;;
47225;SDS011;32965;64.142;-21.912;2024-02-26T12:43:28;33.70;;;6.45;;
47225;SDS011;32965;64.142;-21.912;2024-02-26T12:45:54;31.50;;;7.07;;
47225;SDS011;32965;64.142;-21.912;2024-02-26T12:48:22;44.85;;;7.20;;
47225;SDS011;32965;64.142;-21.912;2024-02-26T12:50:48;42.33;;;9.00;;
47225;SDS011;32965;64.142;-21.912;2024-02-26T12:53:14;33.13;;;7.68;;
47225;SDS011;32965;64.142;-21.912;2024-02-26T12:55:40;40.25;;;7.00;;
47225;SDS011;32965;64.142;-21.912;2024-02-26T12:58:07;30.83;;;7.00;;
47225;SDS011;32965;64.142;-21.912;2024-02-26T13:00:33;30.02;;;7.32;;
47225;SDS011;32965;64.142;-21.912;2024-02-26T13:03:00;30.88;;;6.10;;
47225;SDS011;32965;64.142;-21.912;2024-02-26T13:05:26;34.80;;;6.82;;
47225;SDS011;32965;64.142;-21.912;2024-02-26T13:07:52;30.52;;;6.47;;
47225;SDS011;32965;64.142;-21.912;2024-02-26T13:10:18;35.63;;;6.72;;
47225;SDS011;32965;64.142;-21.912;2024-02-26T13:12:46;23.70;;;5.78;;
47225;SDS011;32965;64.142;-21.912;2024-02-26T13:15:16;27.25;;;6.80;;
47225;SDS011;32965;64.142;-21.912;2024-02-26T13:17:43;27.38;;;5.93;;
47225;SDS011;32965;64.142;-21.912;2024-02-26T13:20:10;33.40;;;6.93;;
47225;SDS011;32965;64.142;-21.912;2024-02-26T13:22:36;25.25;;;6.20;;
47225;SDS011;32965;64.142;-21.912;2024-02-26T13:25:02;38.33;;;6.22;;
47225;SDS011;32965;64.142;-21.912;2024-02-26T13:27:29;34.60;;;6.68;;
47225;SDS011;32965;64.142;-21.912;2024-02-26T13:30:11;23.48;;;6.47;;
47225;SDS011;32965;64.142;-21.912;2024-02-26T13:32:38;23.98;;;5.82;;
47225;SDS011;32965;64.142;-21.912;2024-02-26T13:35:07;24.88;;;5.90;;
47225;SDS011;32965;64.142;-21.912;2024-02-26T13:37:34;33.63;;;6.30;;
47225;SDS011;32965;64.142;-21.912;2024-02-26T13:40:04;30.42;;;6.43;;
47225;SDS011;32965;64.142;-21.912;2024-02-26T13:42:30;32.22;;;6.10;;
47225;SDS011;32965;64.142;-21.912;2024-02-26T13:44:56;27.00;;;4.97;;
47225;SDS011;32965;64.142;-21.912;2024-02-26T13:47:23;23.42;;;5.95;;
47225;SDS011;32965;64.142;-21.912;2024-02-26T13:49:49;34.47;;;6.35;;
47225;SDS011;32965;64.142;-21.912;2024-02-26T13:52:15;32.17;;;6.03;;
47225;SDS011;32965;64.142;-21.912;2024-02-26T13:54:41;31.90;;;6.43;;
47225;SDS011;32965;64.142;-21.912;2024-02-26T13:57:07;32.22;;;5.38;;
47225;SDS011;32965;64.142;-21.912;2024-02-26T13:59:34;26.55;;;5.18;;
47225;SDS011;32965;64.142;-21.912;2024-02-26T14:02:00;33.33;;;5.78;;
47225;SDS011;32965;64.142;-21.912;2024-02-26T14:04:26;28.95;;;4.65;;
47225;SDS011;32965;64.142;-21.912;2024-02-26T14:06:52;26.83;;;5.15;;
47225;SDS011;32965;64.142;-21.912;2024-02-26T14:09:18;32.88;;;6.75;;
47225;SDS011;32965;64.142;-21.912;2024-02-26T14:11:47;31.38;;;5.53;;
47225;SDS011;32965;64.142;-21.912;2024-02-26T14:14:13;29.63;;;5.93;;
47225;SDS011;32965;64.142;-21.912;2024-02-26T14:16:40;32.55;;;5.43;;
47225;SDS011;32965;64.142;-21.912;2024-02-26T14:19:06;22.55;;;4.93;;
47225;SDS011;32965;64.142;-21.912;2024-02-26T14:21:32;22.38;;;4.65;;
47225;SDS011;32965;64.142;-21.912;2024-02-26T14:23:58;28.35;;;4.45;;
47225;SDS011;32965;64.142;-21.912;2024-02-26T14:26:24;33.05;;;5.50;;
47225;SDS011;32965;64.142;-21.912;2024-02-26T14:28:51;25.55;;;5.65;;
47225;SDS011;32965;64.142;-21.912;2024-02-26T14:31:18;32.30;;;5.10;;
47225;SDS011;32965;64.142;-21.912;2024-02-26T14:33:44;34.28;;;6.03;;
47225;SDS011;32965;64.142;-21.912;2024-02-26T14:36:10;24.05;;;5.57;;
47225;SDS011;32965;64.142;-21.912;2024-02-26T14:38:36;33.33;;;5.75;;
47225;SDS011;32965;64.142;-21.912;2024-02-26T14:41:04;27.17;;;4.53;;
47225;SDS011;32965;64.142;-21.912;2024-02-26T14:43:31;31.88;;;6.07;;
47225;SDS011;32965;64.142;-21.912;2024-02-26T14:45:57;16.70;;;2.67;;
47225;SDS011;32965;64.142;-21.912;2024-02-26T14:48:24;28.50;;;4.57;;
47225;SDS011;32965;64.142;-21.912;2024-02-26T14:50:50;25.08;;;5.88;;
47225;SDS011;32965;64.142;-21.912;2024-02-26T14:53:19;34.22;;;5.72;;
47225;SDS011;32965;64.142;-21.912;2024-02-26T14:55:45;29.38;;;5.50;;
47225;SDS011;32965;64.142;-21.912;2024-02-26T14:58:11;38.05;;;6.68;;
47225;SDS011;32965;64.142;-21.912;2024-02-26T15:00:40;28.10;;;5.32;;
47225;SDS011;32965;64.142;-21.912;2024-02-26T15:03:06;21.35;;;4.55;;
47225;SDS011;32965;64.142;-21.912;2024-02-26T15:05:33;30.60;;;5.10;;
47225;SDS011;32965;64.142;-21.912;2024-02-26T15:07:59;23.02;;;5.07;;
47225;SDS011;32965;64.142;-21.912;2024-02-26T15:10:25;26.40;;;6.00;;
47225;SDS011;32965;64.142;-21.912;2024-02-26T15:12:53;25.83;;;5.35;;
47225;SDS011;32965;64.142;-21.912;2024-02-26T15:15:20;27.65;;;6.78;;
47225;SDS011;32965;64.142;-21.912;2024-02-26T15:17:47;25.25;;;6.43;;
47225;SDS011;32965;64.142;-21.912;2024-02-26T15:20:16;22.33;;;4.25;;
47225;SDS011;32965;64.142;-21.912;2024-02-26T15:22:42;29.38;;;6.90;;
47225;SDS011;32965;64.142;-21.912;2024-02-26T15:25:09;27.73;;;6.55;;
47225;SDS011;32965;64.142;-21.912;2024-02-26T15:27:35;27.67;;;7.22;;
47225;SDS011;32965;64.142;-21.912;2024-02-26T15:30:01;30.52;;;6.43;;
47225;SDS011;32965;64.142;-21.912;2024-02-26T15:32:27;36.92;;;7.63;;
47225;SDS011;32965;64.142;-21.912;2024-02-26T15:34:54;29.13;;;6.28;;
47225;SDS011;32965;64.142;-21.912;2024-02-26T15:37:20;29.05;;;6.15;;
47225;SDS011;32965;64.142;-21.912;2024-02-26T15:39:47;26.55;;;5.70;;
47225;SDS011;32965;64.142;-21.912;2024-02-26T15:42:13;23.60;;;6.53;;
47225;SDS011;32965;64.142;-21.912;2024-02-26T15:44:39;31.00;;;5.85;;
47225;SDS011;32965;64.142;-21.912;2024-02-26T15:47:06;28.85;;;5.43;;
47225;SDS011;32965;64.142;-21.912;2024-02-26T15:49:32;27.23;;;5.25;;
47225;SDS011;32965;64.142;-21.912;2024-02-26T15:51:58;26.33;;;6.65;;
47225;SDS011;32965;64.142;-21.912;2024-02-26T15:54:27;25.58;;;5.13;;
47225;SDS011;32965;64.142;-21.912;2024-02-26T15:59:19;20.73;;;4.60;;
47225;SDS011;32965;64.142;-21.912;2024-02-26T16:01:46;33.00;;;5.85;;
47225;SDS011;32965;64.142;-21.912;2024-02-26T16:04:12;26.98;;;6.35;;
47225;SDS011;32965;64.142;-21.912;2024-02-26T16:06:43;19.85;;;4.78;;
47225;SDS011;32965;64.142;-21.912;2024-02-26T16:09:09;22.42;;;5.22;;
47225;SDS011;32965;64.142;-21.912;2024-02-26T16:11:36;24.35;;;3.22;;
47225;SDS011;32965;64.142;-21.912;2024-02-26T16:16:54;25.75;;;5.00;;
47225;SDS011;32965;64.142;-21.912;2024-02-26T16:19:23;23.50;;;4.65;;
47225;SDS011;32965;64.142;-21.912;2024-02-26T16:21:49;20.75;;;3.95;;
47225;SDS011;32965;64.142;-21.912;2024-02-26T16:24:15;23.55;;;4.13;;
47225;SDS011;32965;64.142;-21.912;2024-02-26T16:26:41;27.27;;;5.38;;
47225;SDS011;32965;64.142;-21.912;2024-02-26T16:29:07;24.27;;;5.35;;
47225;SDS011;32965;64.142;-21.912;2024-02-26T16:31:34;34.85;;;5.15;;
47225;SDS011;32965;64.142;-21.912;2024-02-26T16:34:00;28.13;;;4.60;;
47225;SDS011;32965;64.142;-21.912;2024-02-26T18:41:49;14.87;;;2.33;;
47225;SDS011;32965;64.142;-21.912;2024-02-26T21:01:30;8.83;;;2.80;;
47225;SDS011;32965;64.142;-21.912;2024-02-26T21:24:43;7.53;;;3.17;;
47225;SDS011;32965;64.142;-21.912;2024-02-26T21:27:09;4.77;;;1.40;;
47225;SDS011;32965;64.142;-21.912;2024-02-26T21:45:16;11.33;;;3.13;;
